createdAt,value
2018-02-22T00:00:20.747Z,1018.97
2018-02-22T00:01:29.725Z,1018.94
2018-02-22T00:02:38.733Z,1018.96
2018-02-22T00:03:47.692Z,1018.94
2018-02-22T00:04:56.634Z,1018.95
2018-02-22T00:06:05.848Z,1018.9
2018-02-22T00:07:15.089Z,1018.92
2018-02-22T00:08:24.048Z,1018.89
2018-02-22T00:09:32.989Z,1018.88
2018-02-22T00:10:42.235Z,1018.91
2018-02-22T00:11:51.482Z,1018.84
2018-02-22T00:13:00.450Z,1018.83
2018-02-22T00:14:09.675Z,1018.82
2018-02-22T00:15:18.898Z,1018.82
2018-02-22T00:16:27.889Z,1018.8
2018-02-22T00:17:37.098Z,1018.83
2018-02-22T00:18:45.819Z,1018.8
2018-02-22T00:19:54.506Z,1018.85
2018-02-22T00:21:03.197Z,1018.81
2018-02-22T00:22:12.147Z,1018.78
2018-02-22T00:23:20.848Z,1018.82
2018-02-22T00:24:30.611Z,1018.81
2018-02-22T00:25:39.333Z,1018.83
2018-02-22T00:26:48.882Z,1018.82
2018-02-22T00:27:57.848Z,1018.81
2018-02-22T00:29:06.792Z,1018.82
2018-02-22T00:30:16.298Z,1018.8
2018-02-22T00:31:25.805Z,1018.75
2018-02-22T00:32:34.798Z,1018.77
2018-02-22T00:33:43.779Z,1018.74
2018-02-22T00:34:52.523Z,1018.74
2018-02-22T00:36:01.482Z,1018.73
2018-02-22T00:37:10.436Z,1018.71
2018-02-22T00:38:19.400Z,1018.79
2018-02-22T00:39:29.152Z,1018.74
2018-02-22T00:40:38.400Z,1018.72
2018-02-22T00:41:47.655Z,1018.71
2018-02-22T00:42:56.874Z,1018.72
2018-02-22T00:44:05.843Z,1018.73
2018-02-22T00:45:15.380Z,1018.7
2018-02-22T00:46:24.447Z,1018.74
2018-02-22T00:47:34.175Z,1018.7
2018-02-22T00:48:43.698Z,1018.74
2018-02-22T00:49:52.934Z,1018.71
2018-02-22T00:51:02.463Z,1018.7
2018-02-22T00:52:11.441Z,1018.75
2018-02-22T00:53:20.184Z,1018.71
2018-02-22T00:54:29.193Z,1018.65
2018-02-22T00:55:38.429Z,1018.63
2018-02-22T00:56:47.199Z,1018.64
2018-02-22T00:57:56.665Z,1018.67
2018-02-22T00:59:05.874Z,1018.61
2018-02-22T01:00:15.119Z,1018.59
2018-02-22T01:01:24.100Z,1018.56
2018-02-22T01:02:32.785Z,1018.55
2018-02-22T01:03:41.730Z,1018.56
2018-02-22T01:04:51.199Z,1018.57
2018-02-22T01:05:59.898Z,1018.6
2018-02-22T01:07:08.835Z,1018.57
2018-02-22T01:08:17.524Z,1018.59
2018-02-22T01:09:26.198Z,1018.59
2018-02-22T01:10:35.140Z,1018.6
2018-02-22T01:11:44.608Z,1018.59
2018-02-22T01:12:53.852Z,1018.6
2018-02-22T01:14:02.847Z,1018.58
2018-02-22T01:15:12.111Z,1018.62
2018-02-22T01:16:21.320Z,1018.67
2018-02-22T01:17:30.300Z,1018.64
2018-02-22T01:18:40.078Z,1018.61
2018-02-22T01:19:48.793Z,1018.63
2018-02-22T01:20:58.031Z,1018.59
2018-02-22T01:22:07.247Z,1018.56
2018-02-22T01:23:15.971Z,1018.59
2018-02-22T01:24:24.951Z,1018.58
2018-02-22T01:25:33.719Z,1018.63
2018-02-22T01:26:43.445Z,1018.61
2018-02-22T01:27:52.420Z,1018.58
2018-02-22T01:29:01.099Z,1018.6
2018-02-22T01:30:10.321Z,1018.61
2018-02-22T01:31:19.531Z,1018.59
2018-02-22T01:32:29.089Z,1018.61
2018-02-22T01:33:38.826Z,1018.63
2018-02-22T01:34:47.768Z,1018.57
2018-02-22T01:35:56.729Z,1018.59
2018-02-22T01:37:05.426Z,1018.59
2018-02-22T01:38:14.132Z,1018.58
2018-02-22T01:39:23.163Z,1018.59
2018-02-22T01:40:32.392Z,1018.62
2018-02-22T01:41:41.610Z,1018.62
2018-02-22T01:42:50.294Z,1018.61
2018-02-22T01:43:59.271Z,1018.6
2018-02-22T01:45:07.968Z,1018.6
2018-02-22T01:46:16.642Z,1018.58
2018-02-22T01:47:26.114Z,1018.65
2018-02-22T01:48:35.361Z,1018.62
2018-02-22T01:49:44.347Z,1018.63
2018-02-22T01:50:53.060Z,1018.61
2018-02-22T01:52:02.004Z,1018.6
2018-02-22T01:53:11.236Z,1018.59
2018-02-22T01:54:20.222Z,1018.56
2018-02-22T01:55:29.190Z,1018.55
2018-02-22T01:56:37.924Z,1018.55
2018-02-22T01:57:47.441Z,1018.53
2018-02-22T01:58:56.395Z,1018.54
2018-02-22T02:00:05.066Z,1018.55
2018-02-22T02:01:14.005Z,1018.54
2018-02-22T02:02:22.969Z,1018.52
2018-02-22T02:03:32.182Z,1018.52
2018-02-22T02:04:41.390Z,1018.52
2018-02-22T02:05:50.612Z,1018.49
2018-02-22T02:06:59.318Z,1018.47
2018-02-22T02:08:08.304Z,1018.48
2018-02-22T02:09:17.242Z,1018.43
2018-02-22T02:10:26.189Z,1018.43
2018-02-22T02:11:35.144Z,1018.4
2018-02-22T02:12:44.372Z,1018.41
2018-02-22T02:13:53.301Z,1018.43
2018-02-22T02:15:02.231Z,1018.38
2018-02-22T02:16:11.717Z,1018.4
2018-02-22T02:17:20.928Z,1018.4
2018-02-22T02:18:29.934Z,1018.41
2018-02-22T02:19:38.944Z,1018.36
2018-02-22T02:20:47.617Z,1018.37
2018-02-22T02:21:56.584Z,1018.39
2018-02-22T02:23:05.822Z,1018.39
2018-02-22T02:24:15.037Z,1018.37
2018-02-22T02:25:24.764Z,1018.35
2018-02-22T02:26:33.524Z,1018.37
2018-02-22T02:27:43.006Z,1018.34
2018-02-22T02:28:51.970Z,1018.33
2018-02-22T02:30:00.683Z,1018.35
2018-02-22T02:31:10.428Z,1018.34
2018-02-22T02:32:19.415Z,1018.34
2018-02-22T02:33:28.366Z,1018.33
2018-02-22T02:34:37.318Z,1018.34
2018-02-22T02:35:46.554Z,1018.32
2018-02-22T02:36:55.765Z,1018.34
2018-02-22T02:38:05.277Z,1018.29
2018-02-22T02:39:14.602Z,1018.3
2018-02-22T02:40:23.548Z,1018.3
2018-02-22T02:41:32.758Z,1018.31
2018-02-22T02:42:41.721Z,1018.32
2018-02-22T02:43:51.235Z,1018.33
2018-02-22T02:45:00.801Z,1018.26
2018-02-22T02:46:09.753Z,1018.25
2018-02-22T02:47:18.997Z,1018.27
2018-02-22T02:48:28.488Z,1018.29
2018-02-22T02:49:37.469Z,1018.28
2018-02-22T02:50:46.716Z,1018.28
2018-02-22T02:51:55.656Z,1018.27
2018-02-22T02:53:04.603Z,1018.25
2018-02-22T02:54:14.399Z,1018.23
2018-02-22T02:55:23.335Z,1018.21
2018-02-22T02:56:32.021Z,1018.21
2018-02-22T02:57:41.239Z,1018.21
2018-02-22T02:58:50.201Z,1018.18
2018-02-22T02:59:59.151Z,1018.2
2018-02-22T03:01:08.091Z,1018.18
2018-02-22T03:02:16.774Z,1018.19
2018-02-22T03:03:26.034Z,1018.21
2018-02-22T03:04:34.996Z,1018.19
2018-02-22T03:05:44.208Z,1018.21
2018-02-22T03:06:53.397Z,1018.2
2018-02-22T03:08:02.066Z,1018.19
2018-02-22T03:09:10.736Z,1018.19
2018-02-22T03:10:20.019Z,1018.19
2018-02-22T03:11:28.972Z,1018.22
2018-02-22T03:12:37.907Z,1018.23
2018-02-22T03:13:46.950Z,1018.22
2018-02-22T03:14:55.651Z,1018.2
2018-02-22T03:16:04.596Z,1018.21
2018-02-22T03:17:14.344Z,1018.22
2018-02-22T03:18:23.353Z,1018.19
2018-02-22T03:19:32.331Z,1018.2
2018-02-22T03:20:41.906Z,1018.19
2018-02-22T03:21:51.145Z,1018.22
2018-02-22T03:23:00.354Z,1018.19
2018-02-22T03:24:09.303Z,1018.19
2018-02-22T03:25:18.602Z,1018.19
2018-02-22T03:26:27.585Z,1018.2
2018-02-22T03:27:37.061Z,1018.2
2018-02-22T03:28:46.288Z,1018.19
2018-02-22T03:29:55.786Z,1018.18
2018-02-22T03:31:04.747Z,1018.21
2018-02-22T03:32:13.989Z,1018.21
2018-02-22T03:33:23.229Z,1018.22
2018-02-22T03:34:32.499Z,1018.21
2018-02-22T03:35:42.245Z,1018.2
2018-02-22T03:36:51.277Z,1018.2
2018-02-22T03:38:00.223Z,1018.19
2018-02-22T03:39:09.187Z,1018.18
2018-02-22T03:40:18.706Z,1018.2
2018-02-22T03:41:27.644Z,1018.16
2018-02-22T03:42:36.870Z,1018.17
2018-02-22T03:43:45.827Z,1018.2
2018-02-22T03:44:54.776Z,1018.22
2018-02-22T03:46:04.004Z,1018.18
2018-02-22T03:47:12.946Z,1018.17
2018-02-22T03:48:21.883Z,1018.18
2018-02-22T03:49:31.095Z,1018.14
2018-02-22T03:50:40.306Z,1018.15
2018-02-22T03:51:49.526Z,1018.17
2018-02-22T03:52:58.484Z,1018.18
2018-02-22T03:54:07.419Z,1018.17
2018-02-22T03:55:16.885Z,1018.18
2018-02-22T03:56:26.081Z,1018.19
2018-02-22T03:57:35.375Z,1018.18
2018-02-22T03:58:44.365Z,1018.21
2018-02-22T03:59:53.597Z,1018.19
2018-02-22T04:01:02.818Z,1018.22
2018-02-22T04:02:12.057Z,1018.24
2018-02-22T04:03:21.018Z,1018.2
2018-02-22T04:04:30.217Z,1018.21
2018-02-22T04:05:40.251Z,1018.22
2018-02-22T04:06:48.937Z,1018.22
2018-02-22T04:07:58.195Z,1018.16
2018-02-22T04:09:07.137Z,1018.2
2018-02-22T04:10:16.388Z,1018.18
2018-02-22T04:11:25.361Z,1018.23
2018-02-22T04:12:34.334Z,1018.23
2018-02-22T04:13:43.311Z,1018.2
2018-02-22T04:14:52.545Z,1018.19
2018-02-22T04:16:01.743Z,1018.19
2018-02-22T04:17:10.969Z,1018.23
2018-02-22T04:18:19.927Z,1018.21
2018-02-22T04:19:28.672Z,1018.21
2018-02-22T04:20:37.886Z,1018.23
2018-02-22T04:21:46.567Z,1018.21
2018-02-22T04:22:56.046Z,1018.24
2018-02-22T04:24:05.266Z,1018.26
2018-02-22T04:25:14.209Z,1018.3
2018-02-22T04:26:23.673Z,1018.26
2018-02-22T04:27:33.169Z,1018.26
2018-02-22T04:28:42.923Z,1018.29
2018-02-22T04:29:51.642Z,1018.29
2018-02-22T04:31:00.605Z,1018.29
2018-02-22T04:32:09.571Z,1018.26
2018-02-22T04:33:18.274Z,1018.27
2018-02-22T04:34:28.017Z,1018.29
2018-02-22T04:35:37.024Z,1018.3
2018-02-22T04:36:45.968Z,1018.32
2018-02-22T04:37:54.918Z,1018.32
2018-02-22T04:39:04.409Z,1018.34
2018-02-22T04:40:13.094Z,1018.35
2018-02-22T04:41:22.312Z,1018.35
2018-02-22T04:42:31.260Z,1018.33
2018-02-22T04:43:40.727Z,1018.37
2018-02-22T04:44:49.942Z,1018.37
2018-02-22T04:45:59.410Z,1018.35
2018-02-22T04:47:08.118Z,1018.36
2018-02-22T04:48:17.075Z,1018.35
2018-02-22T04:49:26.286Z,1018.36
2018-02-22T04:50:34.995Z,1018.36
2018-02-22T04:51:43.673Z,1018.38
2018-02-22T04:52:52.873Z,1018.38
2018-02-22T04:54:01.813Z,1018.36
2018-02-22T04:55:11.031Z,1018.37
2018-02-22T04:56:19.970Z,1018.37
2018-02-22T04:57:28.918Z,1018.39
2018-02-22T04:58:38.129Z,1018.37
2018-02-22T04:59:47.341Z,1018.43
2018-02-22T05:00:56.575Z,1018.41
2018-02-22T05:02:06.064Z,1018.4
2018-02-22T05:03:15.286Z,1018.41
2018-02-22T05:04:24.228Z,1018.41
2018-02-22T05:05:33.461Z,1018.43
2018-02-22T05:06:42.147Z,1018.47
2018-02-22T05:07:51.132Z,1018.42
2018-02-22T05:09:00.359Z,1018.4
2018-02-22T05:10:09.894Z,1018.39
2018-02-22T05:11:18.853Z,1018.42
2018-02-22T05:12:28.058Z,1018.41
2018-02-22T05:13:37.002Z,1018.38
2018-02-22T05:14:46.473Z,1018.37
2018-02-22T05:15:55.414Z,1018.36
2018-02-22T05:17:04.358Z,1018.35
2018-02-22T05:18:13.036Z,1018.37
2018-02-22T05:19:21.755Z,1018.31
2018-02-22T05:20:30.719Z,1018.35
2018-02-22T05:21:39.688Z,1018.32
2018-02-22T05:22:48.983Z,1018.32
2018-02-22T05:23:57.673Z,1018.31
2018-02-22T05:25:07.452Z,1018.3
2018-02-22T05:26:16.473Z,1018.31
2018-02-22T05:27:25.422Z,1018.31
2018-02-22T05:28:34.624Z,1018.33
2018-02-22T05:29:43.854Z,1018.33
2018-02-22T05:30:52.809Z,1018.32
2018-02-22T05:32:01.508Z,1018.35
2018-02-22T05:33:10.987Z,1018.33
2018-02-22T05:34:20.343Z,1018.33
2018-02-22T05:35:29.802Z,1018.35
2018-02-22T05:36:38.999Z,1018.33
2018-02-22T05:37:47.986Z,1018.4
2018-02-22T05:38:56.959Z,1018.37
2018-02-22T05:40:06.764Z,1018.37
2018-02-22T05:41:15.449Z,1018.34
2018-02-22T05:42:25.029Z,1018.33
2018-02-22T05:43:34.836Z,1018.34
2018-02-22T05:44:43.810Z,1018.36
2018-02-22T05:45:53.053Z,1018.35
2018-02-22T05:47:02.023Z,1018.36
2018-02-22T05:48:11.540Z,1018.37
2018-02-22T05:49:20.493Z,1018.41
2018-02-22T05:50:29.964Z,1018.38
2018-02-22T05:51:38.936Z,1018.37
2018-02-22T05:52:47.899Z,1018.39
2018-02-22T05:53:56.852Z,1018.38
2018-02-22T05:55:05.799Z,1018.38
2018-02-22T05:56:15.055Z,1018.41
2018-02-22T05:57:24.390Z,1018.41
2018-02-22T05:58:33.694Z,1018.41
2018-02-22T05:59:42.670Z,1018.46
2018-02-22T06:00:51.634Z,1018.44
2018-02-22T06:02:00.592Z,1018.48
2018-02-22T06:03:09.565Z,1018.49
2018-02-22T06:04:18.501Z,1018.5
2018-02-22T06:05:28.257Z,1018.53
2018-02-22T06:06:37.198Z,1018.46
2018-02-22T06:07:46.146Z,1018.56
2018-02-22T06:08:55.087Z,1018.54
2018-02-22T06:10:04.296Z,1018.57
2018-02-22T06:11:13.532Z,1018.57
2018-02-22T06:12:22.478Z,1018.58
2018-02-22T06:13:31.463Z,1018.56
2018-02-22T06:14:40.406Z,1018.59
2018-02-22T06:15:49.623Z,1018.58
2018-02-22T06:16:58.823Z,1018.58
2018-02-22T06:18:07.538Z,1018.55
2018-02-22T06:19:17.083Z,1018.56
2018-02-22T06:20:26.338Z,1018.6
2018-02-22T06:21:35.277Z,1018.62
2018-02-22T06:22:44.499Z,1018.62
2018-02-22T06:23:53.703Z,1018.59
2018-02-22T06:25:02.392Z,1018.62
2018-02-22T06:26:11.611Z,1018.62
2018-02-22T06:27:20.821Z,1018.64
2018-02-22T06:28:30.019Z,1018.61
2018-02-22T06:29:39.615Z,1018.65
2018-02-22T06:30:48.570Z,1018.65
2018-02-22T06:31:57.272Z,1018.67
2018-02-22T06:33:06.782Z,1018.7
2018-02-22T06:34:16.259Z,1018.64
2018-02-22T06:35:25.720Z,1018.67
2018-02-22T06:36:34.689Z,1018.69
2018-02-22T06:37:43.713Z,1018.67
2018-02-22T06:38:52.664Z,1018.7
2018-02-22T06:40:02.167Z,1018.67
2018-02-22T06:41:11.693Z,1018.67
2018-02-22T06:42:20.914Z,1018.7
2018-02-22T06:43:30.150Z,1018.76
2018-02-22T06:44:39.677Z,1018.7
2018-02-22T06:45:49.165Z,1018.74
2018-02-22T06:46:57.862Z,1018.72
2018-02-22T06:48:06.822Z,1018.71
2018-02-22T06:49:16.060Z,1018.75
2018-02-22T06:50:25.263Z,1018.77
2018-02-22T06:51:34.484Z,1018.75
2018-02-22T06:52:43.701Z,1018.76
2018-02-22T06:53:52.915Z,1018.76
2018-02-22T06:55:01.629Z,1018.78
2018-02-22T06:56:11.389Z,1018.78
2018-02-22T06:57:20.391Z,1018.73
2018-02-22T06:58:29.868Z,1018.8
2018-02-22T06:59:38.544Z,1018.82
2018-02-22T07:00:47.746Z,1018.82
2018-02-22T07:01:56.694Z,1018.82
2018-02-22T07:03:05.668Z,1018.83
2018-02-22T07:04:14.906Z,1018.87
2018-02-22T07:05:23.870Z,1018.82
2018-02-22T07:06:32.810Z,1018.85
2018-02-22T07:07:42.274Z,1018.82
2018-02-22T07:08:51.210Z,1018.84
2018-02-22T07:10:00.665Z,1018.84
2018-02-22T07:11:09.881Z,1018.82
2018-02-22T07:12:18.811Z,1018.87
2018-02-22T07:13:28.028Z,1018.85
2018-02-22T07:14:37.772Z,1018.85
2018-02-22T07:15:47.038Z,1018.88
2018-02-22T07:16:56.583Z,1018.85
2018-02-22T07:18:05.560Z,1018.96
2018-02-22T07:19:14.293Z,1018.91
2018-02-22T07:20:23.778Z,1018.91
2018-02-22T07:21:33.001Z,1018.91
2018-02-22T07:22:42.278Z,1018.91
2018-02-22T07:23:51.506Z,1018.91
2018-02-22T07:25:00.233Z,1018.89
2018-02-22T07:26:09.264Z,1018.9
2018-02-22T07:27:18.205Z,1018.88
2018-02-22T07:28:27.424Z,1018.9
2018-02-22T07:29:36.368Z,1018.91
2018-02-22T07:30:45.773Z,1018.91
2018-02-22T07:31:55.141Z,1018.89
2018-02-22T07:33:04.108Z,1018.88
2018-02-22T07:34:13.371Z,1018.88
2018-02-22T07:35:22.307Z,1018.9
2018-02-22T07:36:31.561Z,1018.93
2018-02-22T07:37:41.059Z,1018.92
2018-02-22T07:38:50.018Z,1018.91
2018-02-22T07:39:59.030Z,1018.93
2018-02-22T07:41:08.487Z,1018.93
2018-02-22T07:42:17.483Z,1018.92
2018-02-22T07:43:26.782Z,1018.94
2018-02-22T07:44:36.260Z,1018.92
2018-02-22T07:45:45.460Z,1018.97
2018-02-22T07:46:55.201Z,1018.99
2018-02-22T07:48:04.144Z,1018.97
2018-02-22T07:49:13.083Z,1018.96
2018-02-22T07:50:22.813Z,1018.96
2018-02-22T07:51:32.095Z,1019.02
2018-02-22T07:52:41.305Z,1019.02
2018-02-22T07:53:50.506Z,1018.99
2018-02-22T07:54:59.181Z,1019.05
2018-02-22T07:56:08.386Z,1019.08
2018-02-22T07:57:17.333Z,1019.03
2018-02-22T07:58:26.556Z,1019.01
2018-02-22T07:59:35.509Z,1019.07
2018-02-22T08:00:44.219Z,1019.04
2018-02-22T08:01:53.433Z,1019.05
2018-02-22T08:03:02.418Z,1019.04
2018-02-22T08:04:11.629Z,1019.07
2018-02-22T08:05:21.387Z,1019.04
2018-02-22T08:06:30.858Z,1019.1
2018-02-22T08:07:39.547Z,1019.1
2018-02-22T08:08:48.504Z,1019.09
2018-02-22T08:09:57.727Z,1019.06
2018-02-22T08:11:06.940Z,1019.11
2018-02-22T08:12:15.928Z,1019.11
2018-02-22T08:13:25.146Z,1019.1
2018-02-22T08:14:34.078Z,1019.07
2018-02-22T08:15:43.285Z,1019.07
2018-02-22T08:16:52.770Z,1019.03
2018-02-22T08:18:01.714Z,1019.03
2018-02-22T08:19:10.924Z,1019.04
2018-02-22T08:20:19.620Z,1019.08
2018-02-22T08:21:29.095Z,1019.05
2018-02-22T08:22:38.568Z,1019.07
2018-02-22T08:23:48.313Z,1019.07
2018-02-22T08:24:57.550Z,1019.06
2018-02-22T08:26:07.069Z,1019.07
2018-02-22T08:27:16.004Z,1019.1
2018-02-22T08:28:24.965Z,1019.04
2018-02-22T08:29:33.662Z,1019.06
2018-02-22T08:30:42.883Z,1019.06
2018-02-22T08:31:52.171Z,1019.05
2018-02-22T08:33:01.105Z,1019.03
2018-02-22T08:34:10.082Z,1018.99
2018-02-22T08:35:19.078Z,1018.97
2018-02-22T08:36:28.640Z,1019.01
2018-02-22T08:37:37.912Z,1018.94
2018-02-22T08:38:47.721Z,1018.93
2018-02-22T08:39:56.961Z,1018.93
2018-02-22T08:41:06.809Z,1018.91
2018-02-22T08:42:16.047Z,1018.96
2018-02-22T08:43:25.000Z,1018.9
2018-02-22T08:44:35.146Z,1018.85
2018-02-22T08:45:44.157Z,1018.9
2018-02-22T08:46:53.099Z,1018.94
2018-02-22T08:48:01.789Z,1018.93
2018-02-22T08:49:11.046Z,1018.93
2018-02-22T08:50:20.258Z,1018.94
2018-02-22T08:51:29.223Z,1018.92
2018-02-22T08:52:37.930Z,1018.96
2018-02-22T08:53:47.425Z,1018.89
2018-02-22T08:54:56.380Z,1018.9
2018-02-22T08:56:05.614Z,1018.95
2018-02-22T08:57:14.591Z,1018.95
2018-02-22T08:58:23.588Z,1018.95
2018-02-22T08:59:32.846Z,1018.94
2018-02-22T09:00:41.549Z,1018.92
2018-02-22T09:01:50.233Z,1018.96
2018-02-22T09:02:59.192Z,1018.94
2018-02-22T09:04:08.447Z,1018.93
2018-02-22T09:05:17.137Z,1018.88
2018-02-22T09:06:26.100Z,1018.9
2018-02-22T09:07:35.859Z,1018.82
2018-02-22T09:08:44.841Z,1018.9
2018-02-22T09:09:53.995Z,1018.82
2018-02-22T09:11:03.230Z,1018.8
2018-02-22T09:12:12.205Z,1018.87
2018-02-22T09:13:21.460Z,1018.87
2018-02-22T09:14:30.681Z,1018.87
2018-02-22T09:15:39.719Z,1018.82
2018-02-22T09:16:48.977Z,1018.83
2018-02-22T09:17:57.700Z,1018.81
2018-02-22T09:19:06.640Z,1018.85
2018-02-22T09:20:15.317Z,1018.82
2018-02-22T09:21:24.573Z,1018.82
2018-02-22T09:22:34.070Z,1018.84
2018-02-22T09:23:43.265Z,1018.78
2018-02-22T09:24:51.963Z,1018.74
2018-02-22T09:26:00.636Z,1018.77
2018-02-22T09:27:10.149Z,1018.74
2018-02-22T09:28:20.004Z,1018.79
2018-02-22T09:29:29.818Z,1018.77
2018-02-22T09:30:39.308Z,1018.77
2018-02-22T09:31:48.271Z,1018.75
2018-02-22T09:32:57.736Z,1018.76
2018-02-22T09:34:06.431Z,1018.79
2018-02-22T09:35:15.104Z,1018.81
2018-02-22T09:36:24.090Z,1018.83
2018-02-22T09:37:33.313Z,1018.78
2018-02-22T09:38:42.008Z,1018.78
2018-02-22T09:39:51.218Z,1018.76
2018-02-22T09:40:59.896Z,1018.73
2018-02-22T09:42:08.859Z,1018.73
2018-02-22T09:43:18.583Z,1018.76
2018-02-22T09:44:28.061Z,1018.75
2018-02-22T09:45:37.283Z,1018.73
2018-02-22T09:46:46.744Z,1018.75
2018-02-22T09:47:55.424Z,1018.72
2018-02-22T09:49:04.135Z,1018.76
2018-02-22T09:50:13.108Z,1018.7
2018-02-22T09:51:22.682Z,1018.73
2018-02-22T09:52:31.953Z,1018.73
2018-02-22T09:53:41.480Z,1018.72
2018-02-22T09:54:50.658Z,1018.77
2018-02-22T09:55:59.629Z,1018.8
2018-02-22T09:57:08.975Z,1018.79
2018-02-22T09:58:17.936Z,1018.79
2018-02-22T09:59:27.159Z,1018.71
2018-02-22T10:00:36.364Z,1018.7
2018-02-22T10:01:45.061Z,1018.73
2018-02-22T10:02:54.001Z,1018.74
2018-02-22T10:04:02.938Z,1018.69
2018-02-22T10:05:12.402Z,1018.7
2018-02-22T10:06:21.092Z,1018.66
2018-02-22T10:07:30.038Z,1018.64
2018-02-22T10:08:39.513Z,1018.63
2018-02-22T10:09:48.789Z,1018.69
2018-02-22T10:10:58.013Z,1018.66
2018-02-22T10:12:07.510Z,1018.67
2018-02-22T10:13:16.723Z,1018.64
2018-02-22T10:14:25.414Z,1018.66
2018-02-22T10:15:34.675Z,1018.57
2018-02-22T10:16:43.888Z,1018.59
2018-02-22T10:17:52.613Z,1018.69
2018-02-22T10:19:01.868Z,1018.65
2018-02-22T10:20:11.058Z,1018.58
2018-02-22T10:21:20.041Z,1018.66
2018-02-22T10:22:29.553Z,1018.6
2018-02-22T10:23:38.771Z,1018.59
2018-02-22T10:24:48.022Z,1018.61
2018-02-22T10:25:56.724Z,1018.56
2018-02-22T10:27:05.970Z,1018.58
2018-02-22T10:28:15.031Z,1018.57
2018-02-22T10:29:24.292Z,1018.58
2018-02-22T10:30:33.269Z,1018.58
2018-02-22T10:31:42.001Z,1018.56
2018-02-22T10:32:50.951Z,1018.52
2018-02-22T10:34:00.204Z,1018.49
2018-02-22T10:35:09.450Z,1018.48
2018-02-22T10:36:19.289Z,1018.54
2018-02-22T10:37:28.571Z,1018.51
2018-02-22T10:38:37.599Z,1018.48
2018-02-22T10:39:47.310Z,1018.44
2018-02-22T10:40:56.278Z,1018.5
2018-02-22T10:42:05.077Z,1018.41
2018-02-22T10:43:14.301Z,1018.44
2018-02-22T10:44:23.568Z,1018.41
2018-02-22T10:45:32.544Z,1018.41
2018-02-22T10:46:42.040Z,1018.38
2018-02-22T10:47:50.996Z,1018.35
2018-02-22T10:48:59.934Z,1018.35
2018-02-22T10:50:08.993Z,1018.32
2018-02-22T10:51:18.531Z,1018.29
2018-02-22T10:52:27.541Z,1018.27
2018-02-22T10:53:37.037Z,1018.26
2018-02-22T10:54:46.580Z,1018.29
2018-02-22T10:55:55.825Z,1018.32
2018-02-22T10:57:05.134Z,1018.26
2018-02-22T10:58:14.394Z,1018.32
2018-02-22T10:59:23.608Z,1018.33
2018-02-22T11:00:32.819Z,1018.37
2018-02-22T11:01:42.832Z,1018.34
2018-02-22T11:02:51.528Z,1018.33
2018-02-22T11:04:00.735Z,1018.36
2018-02-22T11:05:10.260Z,1018.35
2018-02-22T11:06:19.513Z,1018.39
2018-02-22T11:07:29.101Z,1018.4
2018-02-22T11:08:38.361Z,1018.39
2018-02-22T11:09:47.682Z,1018.38
2018-02-22T11:10:56.675Z,1018.36
2018-02-22T11:12:06.171Z,1018.35
2018-02-22T11:13:15.128Z,1018.31
2018-02-22T11:14:24.089Z,1018.37
2018-02-22T11:15:33.429Z,1018.34
2018-02-22T11:16:42.379Z,1018.4
2018-02-22T11:17:52.055Z,1018.29
2018-02-22T11:19:01.037Z,1018.27
2018-02-22T11:20:10.251Z,1018.32
2018-02-22T11:21:19.230Z,1018.3
2018-02-22T11:22:28.458Z,1018.25
2018-02-22T11:23:37.452Z,1018.33
2018-02-22T11:24:46.698Z,1018.27
2018-02-22T11:25:55.648Z,1018.28
2018-02-22T11:27:05.132Z,1018.28
2018-02-22T11:28:14.415Z,1018.21
2018-02-22T11:29:23.289Z,1018.18
2018-02-22T11:30:32.272Z,1018.22
2018-02-22T11:31:41.266Z,1018.23
2018-02-22T11:32:49.939Z,1018.14
2018-02-22T11:33:59.197Z,1018.15
2018-02-22T11:35:07.868Z,1018.22
2018-02-22T11:36:16.600Z,1018.29
2018-02-22T11:37:25.295Z,1018.2
2018-02-22T11:38:34.546Z,1018.19
2018-02-22T11:39:44.674Z,1018.06
2018-02-22T11:40:53.744Z,1018.14
2018-02-22T11:42:02.807Z,1018.1
2018-02-22T11:43:11.787Z,1018.09
2018-02-22T11:44:20.870Z,1017.96
2018-02-22T11:45:29.882Z,1017.99
2018-02-22T11:46:38.841Z,1017.97
2018-02-22T11:47:48.855Z,1018.07
2018-02-22T11:48:58.868Z,1017.98
2018-02-22T11:50:07.966Z,1017.97
2018-02-22T11:51:16.912Z,1017.98
2018-02-22T11:52:25.873Z,1017.97
2018-02-22T11:53:34.920Z,1017.94
2018-02-22T11:54:44.251Z,1017.99
2018-02-22T11:55:53.424Z,1018.02
2018-02-22T11:57:02.629Z,1017.96
2018-02-22T11:58:12.543Z,1017.87
2018-02-22T11:59:22.611Z,1018
2018-02-22T12:00:31.842Z,1017.96
2018-02-22T12:01:40.530Z,1017.86
2018-02-22T12:02:49.489Z,1017.88
2018-02-22T12:03:58.724Z,1017.84
2018-02-22T12:05:07.701Z,1017.98
2018-02-22T12:06:17.026Z,1017.94
2018-02-22T12:07:27.322Z,1017.88
2018-02-22T12:08:36.892Z,1017.84
2018-02-22T12:09:46.150Z,1017.86
2018-02-22T12:10:56.181Z,1017.89
2018-02-22T12:12:05.678Z,1017.83
2018-02-22T12:13:14.378Z,1017.83
2018-02-22T12:14:23.941Z,1017.74
2018-02-22T12:15:33.157Z,1017.8
2018-02-22T12:16:41.839Z,1017.7
2018-02-22T12:17:50.815Z,1017.71
2018-02-22T12:18:59.755Z,1017.7
2018-02-22T12:20:09.034Z,1017.66
2018-02-22T12:21:17.998Z,1017.65
2018-02-22T12:22:26.987Z,1017.66
2018-02-22T12:23:36.209Z,1017.73
2018-02-22T12:24:45.704Z,1017.57
2018-02-22T12:25:54.656Z,1017.58
2018-02-22T12:27:03.449Z,1017.6
2018-02-22T12:28:13.011Z,1017.58
2018-02-22T12:29:21.942Z,1017.64
2018-02-22T12:30:31.167Z,1017.64
2018-02-22T12:31:40.382Z,1017.56
2018-02-22T12:32:49.598Z,1017.64
2018-02-22T12:33:58.822Z,1017.64
2018-02-22T12:35:07.777Z,1017.55
2018-02-22T12:36:16.710Z,1017.58
2018-02-22T12:37:25.418Z,1017.57
2018-02-22T12:38:34.360Z,1017.5
2018-02-22T12:39:43.349Z,1017.49
2018-02-22T12:40:52.299Z,1017.49
2018-02-22T12:42:01.002Z,1017.42
2018-02-22T12:43:09.955Z,1017.44
2018-02-22T12:44:18.903Z,1017.4
2018-02-22T12:45:28.154Z,1017.46
2018-02-22T12:46:37.401Z,1017.5
2018-02-22T12:47:46.869Z,1017.49
2018-02-22T12:48:55.850Z,1017.36
2018-02-22T12:50:04.560Z,1017.38
2018-02-22T12:51:13.782Z,1017.36
2018-02-22T12:52:23.016Z,1017.29
2018-02-22T12:53:31.963Z,1017.26
2018-02-22T12:54:40.714Z,1017.28
2018-02-22T12:55:49.946Z,1017.24
2018-02-22T12:56:58.886Z,1017.16
2018-02-22T12:58:08.168Z,1017.26
2018-02-22T12:59:17.114Z,1017.3
2018-02-22T13:00:26.330Z,1017.24
2018-02-22T13:01:35.565Z,1017.2
2018-02-22T13:02:44.280Z,1017.22
2018-02-22T13:03:54.077Z,1017.16
2018-02-22T13:05:03.815Z,1017.21
2018-02-22T13:06:13.016Z,1017.2
2018-02-22T13:07:22.037Z,1017.16
2018-02-22T13:08:31.262Z,1017.16
2018-02-22T13:09:40.858Z,1017.14
2018-02-22T13:10:50.324Z,1017.15
2018-02-22T13:11:59.275Z,1017.07
2018-02-22T13:13:08.524Z,1017.06
2018-02-22T13:14:17.209Z,1016.99
2018-02-22T13:15:26.714Z,1017.02
2018-02-22T13:16:36.229Z,1016.96
2018-02-22T13:17:45.440Z,1016.98
2018-02-22T13:18:55.011Z,1016.96
2018-02-22T13:20:04.510Z,1016.95
2018-02-22T13:21:14.270Z,1016.93
2018-02-22T13:22:23.232Z,1016.97
2018-02-22T13:23:31.977Z,1016.92
2018-02-22T13:24:40.974Z,1016.94
2018-02-22T13:25:49.963Z,1016.95
2018-02-22T13:26:58.998Z,1016.89
2018-02-22T13:28:08.243Z,1016.88
2018-02-22T13:29:17.747Z,1016.9
2018-02-22T13:30:26.463Z,1016.77
2018-02-22T13:31:35.939Z,1016.84
2018-02-22T13:32:45.161Z,1016.83
2018-02-22T13:33:54.389Z,1016.84
2018-02-22T13:35:03.354Z,1016.76
2018-02-22T13:36:12.871Z,1016.85
2018-02-22T13:37:21.566Z,1016.75
2018-02-22T13:38:31.212Z,1016.78
2018-02-22T13:39:40.192Z,1016.72
2018-02-22T13:40:48.912Z,1016.73
2018-02-22T13:41:57.709Z,1016.77
2018-02-22T13:43:06.723Z,1016.74
2018-02-22T13:44:16.470Z,1016.7
2018-02-22T13:45:25.671Z,1016.74
2018-02-22T13:46:34.898Z,1016.71
2018-02-22T13:47:44.371Z,1016.67
2018-02-22T13:48:53.376Z,1016.6
2018-02-22T13:50:02.593Z,1016.64
2018-02-22T13:51:12.072Z,1016.64
2018-02-22T13:52:21.363Z,1016.62
2018-02-22T13:53:30.397Z,1016.64
2018-02-22T13:54:39.376Z,1016.57
2018-02-22T13:55:48.617Z,1016.66
2018-02-22T13:56:57.588Z,1016.58
2018-02-22T13:58:06.818Z,1016.55
2018-02-22T13:59:15.792Z,1016.57